sensor_id;sensor_type;location;lat;lon;timestamp;P1;durP1;ratioP1;P2;durP2;ratioP2
8419;SDS011;4247;48.550;8.822;2024-03-17T00:02:06;2.17;;;1.80;;
8419;SDS011;4247;48.550;8.822;2024-03-17T00:04:33;1.77;;;1.67;;
8419;SDS011;4247;48.550;8.822;2024-03-17T00:07:00;2.10;;;1.87;;
8419;SDS011;4247;48.550;8.822;2024-03-17T00:09:27;1.80;;;1.70;;
8419;SDS011;4247;48.550;8.822;2024-03-17T00:11:52;4.13;;;3.17;;
8419;SDS011;4247;48.550;8.822;2024-03-17T00:14:20;2.50;;;2.30;;
8419;SDS011;4247;48.550;8.822;2024-03-17T00:16:46;1.57;;;1.40;;
8419;SDS011;4247;48.550;8.822;2024-03-17T00:19:14;2.27;;;1.73;;
8419;SDS011;4247;48.550;8.822;2024-03-17T00:21:39;4.10;;;1.30;;
8419;SDS011;4247;48.550;8.822;2024-03-17T00:24:07;1.73;;;1.50;;
8419;SDS011;4247;48.550;8.822;2024-03-17T00:26:34;1.23;;;1.13;;
8419;SDS011;4247;48.550;8.822;2024-03-17T00:29:01;2.77;;;1.70;;
8419;SDS011;4247;48.550;8.822;2024-03-17T00:31:28;1.73;;;1.63;;
8419;SDS011;4247;48.550;8.822;2024-03-17T00:33:56;2.70;;;1.60;;
8419;SDS011;4247;48.550;8.822;2024-03-17T00:36:23;1.53;;;1.33;;
8419;SDS011;4247;48.550;8.822;2024-03-17T00:38:49;1.60;;;1.50;;
8419;SDS011;4247;48.550;8.822;2024-03-17T00:41:18;2.50;;;2.20;;
8419;SDS011;4247;48.550;8.822;2024-03-17T00:43:46;1.43;;;1.33;;
8419;SDS011;4247;48.550;8.822;2024-03-17T00:46:12;1.87;;;1.77;;
8419;SDS011;4247;48.550;8.822;2024-03-17T00:48:38;2.13;;;1.93;;
8419;SDS011;4247;48.550;8.822;2024-03-17T00:51:04;3.03;;;2.00;;
8419;SDS011;4247;48.550;8.822;2024-03-17T00:53:31;2.97;;;1.63;;
8419;SDS011;4247;48.550;8.822;2024-03-17T00:55:57;4.67;;;2.43;;
8419;SDS011;4247;48.550;8.822;2024-03-17T00:58:26;4.27;;;2.67;;
8419;SDS011;4247;48.550;8.822;2024-03-17T01:00:53;2.50;;;2.30;;
8419;SDS011;4247;48.550;8.822;2024-03-17T01:03:19;2.40;;;2.10;;
8419;SDS011;4247;48.550;8.822;2024-03-17T01:05:47;4.23;;;2.57;;
8419;SDS011;4247;48.550;8.822;2024-03-17T01:08:13;4.13;;;3.40;;
8419;SDS011;4247;48.550;8.822;2024-03-17T01:10:40;4.87;;;3.33;;
8419;SDS011;4247;48.550;8.822;2024-03-17T01:13:07;6.10;;;3.30;;
8419;SDS011;4247;48.550;8.822;2024-03-17T01:15:35;2.60;;;2.27;;
8419;SDS011;4247;48.550;8.822;2024-03-17T01:18:02;4.13;;;2.00;;
8419;SDS011;4247;48.550;8.822;2024-03-17T01:20:29;1.87;;;1.67;;
8419;SDS011;4247;48.550;8.822;2024-03-17T01:22:55;2.57;;;2.10;;
8419;SDS011;4247;48.550;8.822;2024-03-17T01:25:22;2.40;;;1.60;;
8419;SDS011;4247;48.550;8.822;2024-03-17T01:27:47;1.30;;;1.20;;
8419;SDS011;4247;48.550;8.822;2024-03-17T01:30:14;3.07;;;1.23;;
8419;SDS011;4247;48.550;8.822;2024-03-17T01:32:41;2.13;;;1.10;;
8419;SDS011;4247;48.550;8.822;2024-03-17T01:35:08;1.27;;;1.10;;
8419;SDS011;4247;48.550;8.822;2024-03-17T01:37:34;1.10;;;1.10;;
8419;SDS011;4247;48.550;8.822;2024-03-17T01:40:00;3.80;;;1.13;;
8419;SDS011;4247;48.550;8.822;2024-03-17T01:42:26;3.83;;;0.80;;
8419;SDS011;4247;48.550;8.822;2024-03-17T01:44:54;3.03;;;1.07;;
8419;SDS011;4247;48.550;8.822;2024-03-17T01:47:20;3.43;;;1.10;;
8419;SDS011;4247;48.550;8.822;2024-03-17T01:49:48;1.50;;;1.10;;
8419;SDS011;4247;48.550;8.822;2024-03-17T01:52:14;1.30;;;1.20;;
8419;SDS011;4247;48.550;8.822;2024-03-17T01:54:42;2.70;;;1.10;;
8419;SDS011;4247;48.550;8.822;2024-03-17T01:57:08;1.90;;;1.17;;
8419;SDS011;4247;48.550;8.822;2024-03-17T01:59:36;2.50;;;1.27;;
8419;SDS011;4247;48.550;8.822;2024-03-17T02:02:02;1.60;;;1.30;;
8419;SDS011;4247;48.550;8.822;2024-03-17T02:04:30;1.50;;;1.40;;
8419;SDS011;4247;48.550;8.822;2024-03-17T02:06:57;1.50;;;1.07;;
8419;SDS011;4247;48.550;8.822;2024-03-17T02:09:24;1.20;;;1.10;;
8419;SDS011;4247;48.550;8.822;2024-03-17T02:11:50;1.23;;;0.97;;
8419;SDS011;4247;48.550;8.822;2024-03-17T02:14:17;1.07;;;0.90;;
8419;SDS011;4247;48.550;8.822;2024-03-17T02:16:43;1.50;;;1.13;;
8419;SDS011;4247;48.550;8.822;2024-03-17T02:19:09;1.07;;;0.97;;
8419;SDS011;4247;48.550;8.822;2024-03-17T02:21:35;1.67;;;1.30;;
8419;SDS011;4247;48.550;8.822;2024-03-17T02:24:04;1.20;;;1.10;;
8419;SDS011;4247;48.550;8.822;2024-03-17T02:26:32;2.43;;;1.30;;
8419;SDS011;4247;48.550;8.822;2024-03-17T02:29:00;1.57;;;1.13;;
8419;SDS011;4247;48.550;8.822;2024-03-17T02:31:25;1.47;;;1.37;;
8419;SDS011;4247;48.550;8.822;2024-03-17T02:33:53;1.60;;;1.40;;
8419;SDS011;4247;48.550;8.822;2024-03-17T02:36:18;3.83;;;1.50;;
8419;SDS011;4247;48.550;8.822;2024-03-17T02:38:45;1.83;;;1.73;;
8419;SDS011;4247;48.550;8.822;2024-03-17T02:41:30;2.07;;;1.50;;
8419;SDS011;4247;48.550;8.822;2024-03-17T02:43:57;3.40;;;1.70;;
8419;SDS011;4247;48.550;8.822;2024-03-17T02:46:24;1.50;;;1.20;;
8419;SDS011;4247;48.550;8.822;2024-03-17T02:48:52;1.73;;;1.63;;
8419;SDS011;4247;48.550;8.822;2024-03-17T02:51:19;1.43;;;1.33;;
8419;SDS011;4247;48.550;8.822;2024-03-17T02:53:48;1.40;;;1.30;;
8419;SDS011;4247;48.550;8.822;2024-03-17T02:56:15;3.10;;;1.70;;
8419;SDS011;4247;48.550;8.822;2024-03-17T02:58:44;1.60;;;1.50;;
8419;SDS011;4247;48.550;8.822;2024-03-17T03:01:12;3.27;;;1.60;;
8419;SDS011;4247;48.550;8.822;2024-03-17T03:03:39;1.80;;;1.70;;
8419;SDS011;4247;48.550;8.822;2024-03-17T03:06:06;2.60;;;2.00;;
8419;SDS011;4247;48.550;8.822;2024-03-17T03:08:36;1.63;;;1.40;;
8419;SDS011;4247;48.550;8.822;2024-03-17T03:11:05;2.47;;;2.07;;
8419;SDS011;4247;48.550;8.822;2024-03-17T03:13:35;2.33;;;1.67;;
8419;SDS011;4247;48.550;8.822;2024-03-17T03:16:04;3.53;;;1.63;;
8419;SDS011;4247;48.550;8.822;2024-03-17T03:18:31;1.83;;;1.73;;
8419;SDS011;4247;48.550;8.822;2024-03-17T03:20:58;2.83;;;1.57;;
8419;SDS011;4247;48.550;8.822;2024-03-17T03:23:25;2.97;;;1.30;;
8419;SDS011;4247;48.550;8.822;2024-03-17T03:25:54;1.43;;;1.33;;
8419;SDS011;4247;48.550;8.822;2024-03-17T03:28:21;1.47;;;1.33;;
8419;SDS011;4247;48.550;8.822;2024-03-17T03:30:49;1.60;;;1.50;;
8419;SDS011;4247;48.550;8.822;2024-03-17T03:33:17;2.47;;;1.43;;
8419;SDS011;4247;48.550;8.822;2024-03-17T03:35:44;3.07;;;1.70;;
8419;SDS011;4247;48.550;8.822;2024-03-17T03:38:11;2.87;;;1.87;;
8419;SDS011;4247;48.550;8.822;2024-03-17T03:40:38;2.47;;;1.67;;
8419;SDS011;4247;48.550;8.822;2024-03-17T03:43:05;1.90;;;1.37;;
8419;SDS011;4247;48.550;8.822;2024-03-17T03:45:32;1.77;;;1.57;;
8419;SDS011;4247;48.550;8.822;2024-03-17T03:48:00;2.13;;;1.60;;
8419;SDS011;4247;48.550;8.822;2024-03-17T03:50:29;3.60;;;1.70;;
8419;SDS011;4247;48.550;8.822;2024-03-17T03:52:56;3.53;;;1.73;;
8419;SDS011;4247;48.550;8.822;2024-03-17T03:55:23;2.37;;;1.43;;
8419;SDS011;4247;48.550;8.822;2024-03-17T03:57:50;2.33;;;1.60;;
8419;SDS011;4247;48.550;8.822;2024-03-17T04:00:17;1.80;;;1.70;;
8419;SDS011;4247;48.550;8.822;2024-03-17T04:02:46;2.70;;;1.60;;
8419;SDS011;4247;48.550;8.822;2024-03-17T04:05:14;1.77;;;1.67;;
8419;SDS011;4247;48.550;8.822;2024-03-17T04:07:42;2.17;;;1.97;;
8419;SDS011;4247;48.550;8.822;2024-03-17T04:10:11;6.80;;;1.30;;
8419;SDS011;4247;48.550;8.822;2024-03-17T04:12:38;2.60;;;1.40;;
8419;SDS011;4247;48.550;8.822;2024-03-17T04:15:05;1.63;;;1.47;;
8419;SDS011;4247;48.550;8.822;2024-03-17T04:17:35;1.70;;;1.60;;
8419;SDS011;4247;48.550;8.822;2024-03-17T04:20:02;1.50;;;1.40;;
8419;SDS011;4247;48.550;8.822;2024-03-17T04:22:29;1.93;;;1.70;;
8419;SDS011;4247;48.550;8.822;2024-03-17T04:24:58;5.60;;;1.67;;
8419;SDS011;4247;48.550;8.822;2024-03-17T04:27:25;1.53;;;1.43;;
8419;SDS011;4247;48.550;8.822;2024-03-17T04:29:52;2.80;;;1.40;;
8419;SDS011;4247;48.550;8.822;2024-03-17T04:32:19;2.07;;;1.60;;
8419;SDS011;4247;48.550;8.822;2024-03-17T04:34:46;1.93;;;1.30;;
8419;SDS011;4247;48.550;8.822;2024-03-17T04:37:13;2.03;;;1.83;;
8419;SDS011;4247;48.550;8.822;2024-03-17T04:39:40;5.83;;;1.60;;
8419;SDS011;4247;48.550;8.822;2024-03-17T04:42:10;4.03;;;1.43;;
8419;SDS011;4247;48.550;8.822;2024-03-17T04:44:37;2.33;;;1.70;;
8419;SDS011;4247;48.550;8.822;2024-03-17T04:47:05;1.57;;;1.47;;
8419;SDS011;4247;48.550;8.822;2024-03-17T04:49:32;2.57;;;1.60;;
8419;SDS011;4247;48.550;8.822;2024-03-17T04:52:01;1.90;;;1.80;;
8419;SDS011;4247;48.550;8.822;2024-03-17T04:54:27;1.67;;;1.40;;
8419;SDS011;4247;48.550;8.822;2024-03-17T04:56:54;2.27;;;1.67;;
8419;SDS011;4247;48.550;8.822;2024-03-17T04:59:22;6.30;;;1.77;;
8419;SDS011;4247;48.550;8.822;2024-03-17T05:01:49;1.60;;;1.50;;
8419;SDS011;4247;48.550;8.822;2024-03-17T05:04:16;1.67;;;1.30;;
8419;SDS011;4247;48.550;8.822;2024-03-17T05:06:43;1.60;;;1.37;;
8419;SDS011;4247;48.550;8.822;2024-03-17T05:09:11;2.93;;;1.53;;
8419;SDS011;4247;48.550;8.822;2024-03-17T05:11:39;2.33;;;1.60;;
8419;SDS011;4247;48.550;8.822;2024-03-17T05:14:06;1.60;;;1.30;;
8419;SDS011;4247;48.550;8.822;2024-03-17T05:16:34;3.87;;;1.70;;
8419;SDS011;4247;48.550;8.822;2024-03-17T05:19:00;1.80;;;1.70;;
8419;SDS011;4247;48.550;8.822;2024-03-17T05:21:28;2.53;;;1.83;;
8419;SDS011;4247;48.550;8.822;2024-03-17T05:23:56;2.13;;;1.87;;
8419;SDS011;4247;48.550;8.822;2024-03-17T05:26:23;1.70;;;1.60;;
8419;SDS011;4247;48.550;8.822;2024-03-17T05:28:50;2.93;;;2.20;;
8419;SDS011;4247;48.550;8.822;2024-03-17T05:31:17;2.63;;;1.80;;
8419;SDS011;4247;48.550;8.822;2024-03-17T05:33:47;2.27;;;2.10;;
8419;SDS011;4247;48.550;8.822;2024-03-17T05:36:15;1.70;;;1.60;;
8419;SDS011;4247;48.550;8.822;2024-03-17T05:38:45;4.30;;;1.60;;
8419;SDS011;4247;48.550;8.822;2024-03-17T05:41:11;6.83;;;2.37;;
8419;SDS011;4247;48.550;8.822;2024-03-17T05:43:39;3.17;;;1.90;;
8419;SDS011;4247;48.550;8.822;2024-03-17T05:46:07;1.73;;;1.63;;
8419;SDS011;4247;48.550;8.822;2024-03-17T05:48:38;1.70;;;1.60;;
8419;SDS011;4247;48.550;8.822;2024-03-17T05:51:07;1.97;;;1.77;;
8419;SDS011;4247;48.550;8.822;2024-03-17T05:53:35;5.03;;;1.73;;
8419;SDS011;4247;48.550;8.822;2024-03-17T05:56:02;1.83;;;1.67;;
8419;SDS011;4247;48.550;8.822;2024-03-17T05:58:28;2.83;;;1.50;;
8419;SDS011;4247;48.550;8.822;2024-03-17T06:00:56;5.07;;;2.73;;
8419;SDS011;4247;48.550;8.822;2024-03-17T06:03:23;2.20;;;2.00;;
8419;SDS011;4247;48.550;8.822;2024-03-17T06:05:50;1.90;;;1.80;;
8419;SDS011;4247;48.550;8.822;2024-03-17T06:08:18;3.20;;;1.57;;
8419;SDS011;4247;48.550;8.822;2024-03-17T06:10:45;2.20;;;2.00;;
8419;SDS011;4247;48.550;8.822;2024-03-17T06:13:13;4.23;;;1.67;;
8419;SDS011;4247;48.550;8.822;2024-03-17T06:15:42;1.37;;;1.17;;
8419;SDS011;4247;48.550;8.822;2024-03-17T06:18:11;1.50;;;1.20;;
8419;SDS011;4247;48.550;8.822;2024-03-17T06:20:39;1.80;;;1.40;;
8419;SDS011;4247;48.550;8.822;2024-03-17T06:23:08;3.20;;;1.73;;
8419;SDS011;4247;48.550;8.822;2024-03-17T06:25:39;3.83;;;1.53;;
8419;SDS011;4247;48.550;8.822;2024-03-17T06:28:06;1.70;;;1.50;;
8419;SDS011;4247;48.550;8.822;2024-03-17T06:30:33;1.60;;;1.50;;
8419;SDS011;4247;48.550;8.822;2024-03-17T06:33:01;1.60;;;1.37;;
8419;SDS011;4247;48.550;8.822;2024-03-17T06:35:27;3.20;;;1.37;;
8419;SDS011;4247;48.550;8.822;2024-03-17T06:37:58;1.73;;;1.63;;
8419;SDS011;4247;48.550;8.822;2024-03-17T06:40:25;4.27;;;1.93;;
8419;SDS011;4247;48.550;8.822;2024-03-17T06:42:54;1.93;;;1.50;;
8419;SDS011;4247;48.550;8.822;2024-03-17T06:45:21;1.37;;;1.27;;
8419;SDS011;4247;48.550;8.822;2024-03-17T06:47:48;1.30;;;1.20;;
8419;SDS011;4247;48.550;8.822;2024-03-17T06:50:15;5.20;;;1.30;;
8419;SDS011;4247;48.550;8.822;2024-03-17T06:52:41;1.53;;;1.40;;
8419;SDS011;4247;48.550;8.822;2024-03-17T06:55:08;1.83;;;1.70;;
8419;SDS011;4247;48.550;8.822;2024-03-17T06:57:36;2.17;;;1.50;;
8419;SDS011;4247;48.550;8.822;2024-03-17T07:00:05;3.50;;;1.77;;
8419;SDS011;4247;48.550;8.822;2024-03-17T07:02:38;1.50;;;1.40;;
8419;SDS011;4247;48.550;8.822;2024-03-17T07:05:06;1.30;;;1.20;;
8419;SDS011;4247;48.550;8.822;2024-03-17T07:07:33;1.53;;;1.43;;
8419;SDS011;4247;48.550;8.822;2024-03-17T07:10:00;15.17;;;2.83;;
8419;SDS011;4247;48.550;8.822;2024-03-17T07:12:30;2.00;;;1.37;;
8419;SDS011;4247;48.550;8.822;2024-03-17T07:14:56;2.20;;;1.33;;
8419;SDS011;4247;48.550;8.822;2024-03-17T07:17:24;1.97;;;1.77;;
8419;SDS011;4247;48.550;8.822;2024-03-17T07:19:51;1.50;;;1.40;;
8419;SDS011;4247;48.550;8.822;2024-03-17T07:22:18;2.03;;;1.50;;
8419;SDS011;4247;48.550;8.822;2024-03-17T07:24:45;1.43;;;1.33;;
8419;SDS011;4247;48.550;8.822;2024-03-17T07:27:12;3.00;;;1.80;;
8419;SDS011;4247;48.550;8.822;2024-03-17T07:29:39;1.87;;;1.70;;
8419;SDS011;4247;48.550;8.822;2024-03-17T07:32:06;1.70;;;1.60;;
8419;SDS011;4247;48.550;8.822;2024-03-17T07:34:34;2.33;;;2.13;;
8419;SDS011;4247;48.550;8.822;2024-03-17T07:37:01;2.03;;;1.93;;
8419;SDS011;4247;48.550;8.822;2024-03-17T07:39:28;2.07;;;1.87;;
8419;SDS011;4247;48.550;8.822;2024-03-17T07:41:57;2.17;;;1.97;;
8419;SDS011;4247;48.550;8.822;2024-03-17T07:44:24;5.00;;;1.83;;
8419;SDS011;4247;48.550;8.822;2024-03-17T07:46:51;4.53;;;1.83;;
8419;SDS011;4247;48.550;8.822;2024-03-17T07:49:20;3.77;;;2.07;;
8419;SDS011;4247;48.550;8.822;2024-03-17T07:51:48;2.20;;;2.00;;
8419;SDS011;4247;48.550;8.822;2024-03-17T07:54:14;2.27;;;2.07;;
8419;SDS011;4247;48.550;8.822;2024-03-17T07:56:41;2.27;;;2.07;;
8419;SDS011;4247;48.550;8.822;2024-03-17T07:59:08;2.00;;;1.90;;
8419;SDS011;4247;48.550;8.822;2024-03-17T08:01:37;2.70;;;2.40;;
8419;SDS011;4247;48.550;8.822;2024-03-17T08:04:04;3.30;;;3.00;;
8419;SDS011;4247;48.550;8.822;2024-03-17T08:06:30;2.50;;;1.73;;
8419;SDS011;4247;48.550;8.822;2024-03-17T08:08:58;2.50;;;2.30;;
8419;SDS011;4247;48.550;8.822;2024-03-17T08:11:26;2.57;;;2.20;;
8419;SDS011;4247;48.550;8.822;2024-03-17T08:13:53;2.20;;;2.00;;
8419;SDS011;4247;48.550;8.822;2024-03-17T08:16:20;5.20;;;2.70;;
8419;SDS011;4247;48.550;8.822;2024-03-17T08:18:47;2.57;;;1.83;;
8419;SDS011;4247;48.550;8.822;2024-03-17T08:21:13;2.47;;;2.17;;
8419;SDS011;4247;48.550;8.822;2024-03-17T08:23:40;3.13;;;2.33;;
8419;SDS011;4247;48.550;8.822;2024-03-17T08:26:09;13.27;;;2.17;;
8419;SDS011;4247;48.550;8.822;2024-03-17T08:28:36;2.37;;;2.17;;
8419;SDS011;4247;48.550;8.822;2024-03-17T08:31:02;3.03;;;1.60;;
8419;SDS011;4247;48.550;8.822;2024-03-17T08:33:30;2.73;;;2.53;;
8419;SDS011;4247;48.550;8.822;2024-03-17T08:36:00;2.07;;;1.90;;
8419;SDS011;4247;48.550;8.822;2024-03-17T08:38:28;2.37;;;2.17;;
8419;SDS011;4247;48.550;8.822;2024-03-17T08:40:57;2.37;;;2.27;;
8419;SDS011;4247;48.550;8.822;2024-03-17T08:43:29;2.57;;;2.33;;
8419;SDS011;4247;48.550;8.822;2024-03-17T08:45:56;1.97;;;1.80;;
8419;SDS011;4247;48.550;8.822;2024-03-17T08:48:24;3.57;;;2.23;;
8419;SDS011;4247;48.550;8.822;2024-03-17T08:50:51;3.10;;;2.27;;
8419;SDS011;4247;48.550;8.822;2024-03-17T08:53:18;2.70;;;2.47;;
8419;SDS011;4247;48.550;8.822;2024-03-17T08:55:45;2.37;;;1.87;;
8419;SDS011;4247;48.550;8.822;2024-03-17T08:58:11;2.40;;;2.20;;
8419;SDS011;4247;48.550;8.822;2024-03-17T09:00:39;4.47;;;2.47;;
8419;SDS011;4247;48.550;8.822;2024-03-17T09:03:07;2.00;;;1.80;;
8419;SDS011;4247;48.550;8.822;2024-03-17T09:05:35;4.10;;;1.80;;
8419;SDS011;4247;48.550;8.822;2024-03-17T09:08:02;3.13;;;2.30;;
8419;SDS011;4247;48.550;8.822;2024-03-17T09:10:29;1.73;;;1.63;;
8419;SDS011;4247;48.550;8.822;2024-03-17T09:12:56;1.87;;;1.70;;
8419;SDS011;4247;48.550;8.822;2024-03-17T09:15:22;2.07;;;1.70;;
8419;SDS011;4247;48.550;8.822;2024-03-17T09:17:50;2.10;;;2.00;;
8419;SDS011;4247;48.550;8.822;2024-03-17T09:20:17;2.00;;;1.80;;
8419;SDS011;4247;48.550;8.822;2024-03-17T09:22:44;2.90;;;1.87;;
8419;SDS011;4247;48.550;8.822;2024-03-17T09:25:11;3.73;;;1.97;;
8419;SDS011;4247;48.550;8.822;2024-03-17T09:27:39;6.00;;;2.13;;
8419;SDS011;4247;48.550;8.822;2024-03-17T09:30:06;2.30;;;2.10;;
8419;SDS011;4247;48.550;8.822;2024-03-17T09:32:34;2.73;;;2.00;;
8419;SDS011;4247;48.550;8.822;2024-03-17T09:35:03;2.50;;;1.63;;
8419;SDS011;4247;48.550;8.822;2024-03-17T09:37:30;3.90;;;1.83;;
8419;SDS011;4247;48.550;8.822;2024-03-17T09:39:57;2.97;;;2.10;;
8419;SDS011;4247;48.550;8.822;2024-03-17T09:42:25;3.40;;;1.50;;
8419;SDS011;4247;48.550;8.822;2024-03-17T09:44:53;5.17;;;2.10;;
8419;SDS011;4247;48.550;8.822;2024-03-17T09:47:22;4.83;;;2.13;;
8419;SDS011;4247;48.550;8.822;2024-03-17T09:49:51;2.70;;;1.53;;
8419;SDS011;4247;48.550;8.822;2024-03-17T09:52:20;2.53;;;1.50;;
8419;SDS011;4247;48.550;8.822;2024-03-17T09:54:55;1.93;;;1.63;;
8419;SDS011;4247;48.550;8.822;2024-03-17T09:57:25;3.33;;;2.13;;
8419;SDS011;4247;48.550;8.822;2024-03-17T09:59:54;2.50;;;1.73;;
8419;SDS011;4247;48.550;8.822;2024-03-17T10:02:21;3.87;;;1.73;;
8419;SDS011;4247;48.550;8.822;2024-03-17T10:04:48;1.37;;;1.20;;
8419;SDS011;4247;48.550;8.822;2024-03-17T10:07:15;1.77;;;1.40;;
8419;SDS011;4247;48.550;8.822;2024-03-17T10:09:43;0.80;;;0.70;;
8419;SDS011;4247;48.550;8.822;2024-03-17T10:12:26;2.17;;;1.13;;
8419;SDS011;4247;48.550;8.822;2024-03-17T10:14:59;2.87;;;1.00;;
8419;SDS011;4247;48.550;8.822;2024-03-17T10:17:30;3.87;;;0.70;;
8419;SDS011;4247;48.550;8.822;2024-03-17T10:22:58;1.03;;;0.73;;
8419;SDS011;4247;48.550;8.822;2024-03-17T10:25:27;2.30;;;0.97;;
8419;SDS011;4247;48.550;8.822;2024-03-17T10:27:54;1.20;;;0.80;;
8419;SDS011;4247;48.550;8.822;2024-03-17T10:30:21;1.77;;;1.30;;
8419;SDS011;4247;48.550;8.822;2024-03-17T10:32:54;2.47;;;1.30;;
8419;SDS011;4247;48.550;8.822;2024-03-17T10:35:25;1.73;;;1.27;;
8419;SDS011;4247;48.550;8.822;2024-03-17T10:37:54;1.23;;;1.10;;
8419;SDS011;4247;48.550;8.822;2024-03-17T10:40:23;3.60;;;0.83;;
8419;SDS011;4247;48.550;8.822;2024-03-17T10:42:53;1.47;;;0.80;;
8419;SDS011;4247;48.550;8.822;2024-03-17T10:45:20;1.53;;;0.70;;
8419;SDS011;4247;48.550;8.822;2024-03-17T10:47:48;2.30;;;0.77;;
8419;SDS011;4247;48.550;8.822;2024-03-17T10:50:16;1.60;;;1.00;;
8419;SDS011;4247;48.550;8.822;2024-03-17T10:52:45;3.30;;;0.77;;
8419;SDS011;4247;48.550;8.822;2024-03-17T10:55:19;3.70;;;0.80;;
8419;SDS011;4247;48.550;8.822;2024-03-17T10:57:48;2.43;;;0.80;;
8419;SDS011;4247;48.550;8.822;2024-03-17T11:00:18;4.23;;;1.13;;
8419;SDS011;4247;48.550;8.822;2024-03-17T11:02:47;4.00;;;0.87;;
8419;SDS011;4247;48.550;8.822;2024-03-17T11:05:16;1.07;;;0.70;;
8419;SDS011;4247;48.550;8.822;2024-03-17T11:07:46;1.80;;;0.70;;
8419;SDS011;4247;48.550;8.822;2024-03-17T11:10:14;3.30;;;0.73;;
8419;SDS011;4247;48.550;8.822;2024-03-17T11:12:43;4.43;;;0.80;;
8419;SDS011;4247;48.550;8.822;2024-03-17T11:21:04;2.20;;;0.83;;
8419;SDS011;4247;48.550;8.822;2024-03-17T11:23:40;2.60;;;1.30;;
8419;SDS011;4247;48.550;8.822;2024-03-17T11:26:07;0.70;;;0.70;;
8419;SDS011;4247;48.550;8.822;2024-03-17T11:28:44;2.90;;;0.93;;
8419;SDS011;4247;48.550;8.822;2024-03-17T11:34:00;2.23;;;0.77;;
8419;SDS011;4247;48.550;8.822;2024-03-17T11:36:37;5.87;;;1.10;;
8419;SDS011;4247;48.550;8.822;2024-03-17T11:39:04;2.73;;;0.70;;
8419;SDS011;4247;48.550;8.822;2024-03-17T11:41:36;3.87;;;1.00;;
8419;SDS011;4247;48.550;8.822;2024-03-17T11:44:15;2.37;;;0.90;;
8419;SDS011;4247;48.550;8.822;2024-03-17T11:46:51;2.43;;;0.40;;
8419;SDS011;4247;48.550;8.822;2024-03-17T11:49:18;1.27;;;0.80;;
8419;SDS011;4247;48.550;8.822;2024-03-17T11:51:47;1.70;;;0.83;;
8419;SDS011;4247;48.550;8.822;2024-03-17T11:54:14;1.50;;;0.30;;
8419;SDS011;4247;48.550;8.822;2024-03-17T11:56:44;0.30;;;0.30;;
8419;SDS011;4247;48.550;8.822;2024-03-17T11:59:10;0.73;;;0.30;;
8419;SDS011;4247;48.550;8.822;2024-03-17T12:01:37;4.43;;;0.40;;
8419;SDS011;4247;48.550;8.822;2024-03-17T12:04:06;1.13;;;0.40;;
8419;SDS011;4247;48.550;8.822;2024-03-17T12:06:33;2.83;;;0.40;;
8419;SDS011;4247;48.550;8.822;2024-03-17T12:09:08;1.07;;;0.40;;
8419;SDS011;4247;48.550;8.822;2024-03-17T12:11:37;0.50;;;0.30;;
8419;SDS011;4247;48.550;8.822;2024-03-17T12:14:13;0.23;;;0.20;;
8419;SDS011;4247;48.550;8.822;2024-03-17T12:16:48;1.90;;;0.37;;
8419;SDS011;4247;48.550;8.822;2024-03-17T12:19:16;1.53;;;0.30;;
8419;SDS011;4247;48.550;8.822;2024-03-17T12:21:43;0.73;;;0.60;;
8419;SDS011;4247;48.550;8.822;2024-03-17T12:24:13;4.93;;;0.40;;
8419;SDS011;4247;48.550;8.822;2024-03-17T12:26:42;0.40;;;0.40;;
8419;SDS011;4247;48.550;8.822;2024-03-17T12:32:06;1.53;;;0.40;;
8419;SDS011;4247;48.550;8.822;2024-03-17T12:34:39;0.47;;;0.33;;
8419;SDS011;4247;48.550;8.822;2024-03-17T12:37:07;2.60;;;0.23;;
8419;SDS011;4247;48.550;8.822;2024-03-17T12:39:33;0.20;;;0.10;;
8419;SDS011;4247;48.550;8.822;2024-03-17T12:42:04;1.50;;;0.47;;
8419;SDS011;4247;48.550;8.822;2024-03-17T12:44:33;0.87;;;0.30;;
8419;SDS011;4247;48.550;8.822;2024-03-17T12:47:03;0.43;;;0.20;;
8419;SDS011;4247;48.550;8.822;2024-03-17T12:49:30;1.47;;;0.30;;
8419;SDS011;4247;48.550;8.822;2024-03-17T12:52:00;1.07;;;0.30;;
8419;SDS011;4247;48.550;8.822;2024-03-17T12:54:27;3.93;;;0.33;;
8419;SDS011;4247;48.550;8.822;2024-03-17T12:57:04;0.67;;;0.20;;
8419;SDS011;4247;48.550;8.822;2024-03-17T12:59:49;1.07;;;0.60;;
8419;SDS011;4247;48.550;8.822;2024-03-17T13:02:32;1.33;;;0.20;;
8419;SDS011;4247;48.550;8.822;2024-03-17T13:07:49;0.10;;;0.10;;
8419;SDS011;4247;48.550;8.822;2024-03-17T13:10:17;0.97;;;0.20;;
8419;SDS011;4247;48.550;8.822;2024-03-17T13:12:44;2.30;;;0.67;;
8419;SDS011;4247;48.550;8.822;2024-03-17T13:15:12;0.40;;;0.30;;
8419;SDS011;4247;48.550;8.822;2024-03-17T13:17:40;0.53;;;0.10;;
8419;SDS011;4247;48.550;8.822;2024-03-17T13:20:07;0.10;;;0.10;;
8419;SDS011;4247;48.550;8.822;2024-03-17T13:22:38;1.33;;;0.30;;
8419;SDS011;4247;48.550;8.822;2024-03-17T13:25:07;1.27;;;0.10;;
8419;SDS011;4247;48.550;8.822;2024-03-17T13:27:38;0.20;;;0.20;;
8419;SDS011;4247;48.550;8.822;2024-03-17T13:30:05;4.83;;;0.23;;
8419;SDS011;4247;48.550;8.822;2024-03-17T13:32:34;1.30;;;0.30;;
8419;SDS011;4247;48.550;8.822;2024-03-17T13:35:00;2.23;;;0.33;;
8419;SDS011;4247;48.550;8.822;2024-03-17T13:37:31;1.20;;;0.23;;
8419;SDS011;4247;48.550;8.822;2024-03-17T13:39:57;1.37;;;0.20;;
8419;SDS011;4247;48.550;8.822;2024-03-17T13:42:28;2.07;;;0.33;;
8419;SDS011;4247;48.550;8.822;2024-03-17T13:44:55;0.27;;;0.10;;
8419;SDS011;4247;48.550;8.822;2024-03-17T13:47:22;3.27;;;0.67;;
8419;SDS011;4247;48.550;8.822;2024-03-17T13:49:49;0.37;;;0.20;;
8419;SDS011;4247;48.550;8.822;2024-03-17T13:52:15;1.30;;;0.27;;
8419;SDS011;4247;48.550;8.822;2024-03-17T13:54:43;2.50;;;0.37;;
8419;SDS011;4247;48.550;8.822;2024-03-17T13:57:11;2.03;;;0.30;;
8419;SDS011;4247;48.550;8.822;2024-03-17T13:59:39;1.47;;;0.20;;
8419;SDS011;4247;48.550;8.822;2024-03-17T14:02:07;0.90;;;0.40;;
8419;SDS011;4247;48.550;8.822;2024-03-17T14:04:38;6.20;;;0.23;;
8419;SDS011;4247;48.550;8.822;2024-03-17T14:07:05;1.80;;;0.20;;
8419;SDS011;4247;48.550;8.822;2024-03-17T14:09:31;0.50;;;0.40;;
8419;SDS011;4247;48.550;8.822;2024-03-17T14:11:58;0.60;;;0.40;;
8419;SDS011;4247;48.550;8.822;2024-03-17T14:14:25;2.70;;;0.30;;
8419;SDS011;4247;48.550;8.822;2024-03-17T14:16:53;1.07;;;0.27;;
8419;SDS011;4247;48.550;8.822;2024-03-17T14:19:20;0.57;;;0.30;;
8419;SDS011;4247;48.550;8.822;2024-03-17T14:21:46;0.30;;;0.20;;
8419;SDS011;4247;48.550;8.822;2024-03-17T14:24:13;0.50;;;0.20;;
8419;SDS011;4247;48.550;8.822;2024-03-17T14:26:40;0.73;;;0.10;;
8419;SDS011;4247;48.550;8.822;2024-03-17T14:29:06;0.53;;;0.20;;
8419;SDS011;4247;48.550;8.822;2024-03-17T14:31:33;1.47;;;0.33;;
8419;SDS011;4247;48.550;8.822;2024-03-17T14:34:03;3.37;;;0.90;;
8419;SDS011;4247;48.550;8.822;2024-03-17T14:36:30;2.57;;;0.40;;
8419;SDS011;4247;48.550;8.822;2024-03-17T14:38:58;1.03;;;0.20;;
8419;SDS011;4247;48.550;8.822;2024-03-17T14:41:27;0.30;;;0.30;;
8419;SDS011;4247;48.550;8.822;2024-03-17T14:43:54;3.50;;;0.30;;
8419;SDS011;4247;48.550;8.822;2024-03-17T14:46:20;0.70;;;0.20;;
8419;SDS011;4247;48.550;8.822;2024-03-17T14:48:47;1.03;;;0.20;;
8419;SDS011;4247;48.550;8.822;2024-03-17T14:51:17;1.50;;;0.20;;
8419;SDS011;4247;48.550;8.822;2024-03-17T14:53:43;1.50;;;0.23;;
8419;SDS011;4247;48.550;8.822;2024-03-17T14:56:14;0.20;;;0.20;;
8419;SDS011;4247;48.550;8.822;2024-03-17T14:58:42;2.87;;;0.30;;
8419;SDS011;4247;48.550;8.822;2024-03-17T15:01:09;1.13;;;0.37;;
8419;SDS011;4247;48.550;8.822;2024-03-17T15:03:36;2.57;;;0.40;;
8419;SDS011;4247;48.550;8.822;2024-03-17T15:06:04;0.70;;;0.30;;
8419;SDS011;4247;48.550;8.822;2024-03-17T15:08:36;1.13;;;0.30;;
8419;SDS011;4247;48.550;8.822;2024-03-17T15:11:03;1.00;;;0.23;;
8419;SDS011;4247;48.550;8.822;2024-03-17T15:13:30;1.23;;;0.50;;
8419;SDS011;4247;48.550;8.822;2024-03-17T15:15:57;1.23;;;0.90;;
8419;SDS011;4247;48.550;8.822;2024-03-17T15:18:23;2.37;;;0.30;;
8419;SDS011;4247;48.550;8.822;2024-03-17T15:20:51;1.40;;;0.40;;
8419;SDS011;4247;48.550;8.822;2024-03-17T15:23:20;0.50;;;0.20;;
8419;SDS011;4247;48.550;8.822;2024-03-17T15:25:48;0.60;;;0.60;;
8419;SDS011;4247;48.550;8.822;2024-03-17T15:28:14;0.53;;;0.43;;
8419;SDS011;4247;48.550;8.822;2024-03-17T15:30:41;2.00;;;1.50;;
8419;SDS011;4247;48.550;8.822;2024-03-17T15:33:08;3.87;;;1.60;;
8419;SDS011;4247;48.550;8.822;2024-03-17T15:35:35;2.97;;;1.40;;
8419;SDS011;4247;48.550;8.822;2024-03-17T15:38:02;3.73;;;0.87;;